createdAt,value
2022-07-30T00:01:13.978Z,100993.19
2022-07-30T00:03:40.600Z,100996.91
2022-07-30T00:06:07.117Z,100993.66
2022-07-30T00:08:34.000Z,100996.91
2022-07-30T00:11:00.531Z,100990.88
2022-07-30T00:13:27.168Z,100990.91
2022-07-30T00:15:53.654Z,100988.91
2022-07-30T00:18:20.132Z,100980.41
2022-07-30T00:20:48.875Z,100984.94
2022-07-30T00:23:15.876Z,100983.31
2022-07-30T00:25:42.356Z,100978.06
2022-07-30T00:28:08.935Z,100973.22
2022-07-30T00:30:35.761Z,100969.97
2022-07-30T00:33:02.376Z,100975.22
2022-07-30T00:35:29.131Z,100980.91
2022-07-30T00:37:55.819Z,100980.91
2022-07-30T00:40:22.546Z,100978.50
2022-07-30T00:42:49.401Z,100974.03
2022-07-30T00:45:17.803Z,100977.31
2022-07-30T00:47:44.637Z,100976.13
2022-07-30T00:50:13.807Z,100974.13
2022-07-30T00:52:41.338Z,100972.16
2022-07-30T00:55:13.983Z,100971.00
2022-07-30T00:57:41.346Z,100971.81
2022-07-30T01:00:11.416Z,100979.16
2022-07-30T01:02:38.387Z,100975.16
2022-07-30T01:05:05.956Z,100978.03
2022-07-30T01:07:32.676Z,100971.56
2022-07-30T01:09:59.270Z,100974.03
2022-07-30T01:12:27.263Z,100976.13
2022-07-30T01:14:56.146Z,100970.47
2022-07-30T01:17:22.778Z,100970.91
2022-07-30T01:19:52.544Z,100966.09
2022-07-30T01:22:31.013Z,100981.53
2022-07-30T01:25:03.941Z,100971.44
2022-07-30T01:27:35.288Z,100974.69
2022-07-30T01:30:04.340Z,100976.34
2022-07-30T01:32:31.748Z,100973.53
2022-07-30T01:35:00.933Z,100968.69
2022-07-30T01:37:29.187Z,100971.97
2022-07-30T01:39:56.590Z,100965.91
2022-07-30T01:42:25.172Z,100970.00
2022-07-30T01:44:51.629Z,100968.41
2022-07-30T01:47:20.720Z,100968.00
2022-07-30T01:49:50.588Z,100967.28
2022-07-30T01:52:18.732Z,100976.19
2022-07-30T01:54:48.665Z,100973.44
2022-07-30T01:57:18.580Z,100960.16
2022-07-30T01:59:49.251Z,100967.06
2022-07-30T02:02:17.943Z,100973.56
2022-07-30T02:04:44.877Z,100973.56
2022-07-30T02:07:18.486Z,100973.59
2022-07-30T02:09:59.693Z,100980.88
2022-07-30T02:12:30.038Z,100975.22
2022-07-30T02:15:10.445Z,100982.56
2022-07-30T02:17:54.818Z,100981.34
2022-07-30T02:20:25.045Z,100970.44
2022-07-30T02:22:57.082Z,100982.19
2022-07-30T02:25:24.087Z,100976.13
2022-07-30T02:27:56.029Z,100977.34
2022-07-30T02:30:27.029Z,100979.38
2022-07-30T02:32:59.526Z,100971.69
2022-07-30T02:35:29.300Z,100972.13
2022-07-30T02:37:57.811Z,100974.56
2022-07-30T02:40:25.109Z,100979.00
2022-07-30T02:42:53.132Z,100976.97
2022-07-30T02:45:21.056Z,100983.88
2022-07-30T02:47:52.439Z,100986.75
2022-07-30T02:50:20.367Z,100989.59
2022-07-30T02:52:48.435Z,100984.34
2022-07-30T02:55:17.532Z,100991.66
2022-07-30T02:57:46.029Z,100986.00
2022-07-30T03:00:13.537Z,100984.41
2022-07-30T03:02:42.862Z,100993.72
2022-07-30T03:05:11.856Z,100998.19
2022-07-30T03:07:40.411Z,101000.59
2022-07-30T03:10:07.573Z,100991.75
2022-07-30T03:12:36.212Z,100987.69
2022-07-30T03:15:02.819Z,100997.41
2022-07-30T03:17:37.345Z,100987.69
2022-07-30T03:20:07.973Z,100994.59
2022-07-30T03:22:41.443Z,100994.22
2022-07-30T03:25:09.807Z,100993.41
2022-07-30T03:27:38.226Z,100989.38
2022-07-30T03:30:05.999Z,100997.09
2022-07-30T03:32:34.330Z,100988.63
2022-07-30T03:35:06.170Z,101001.97
2022-07-30T03:37:36.899Z,100998.38
2022-07-30T03:40:05.834Z,101000.78
2022-07-30T03:42:33.794Z,100999.97
2022-07-30T03:45:06.964Z,100997.19
2022-07-30T03:47:36.563Z,101004.84
2022-07-30T03:50:04.224Z,101003.63
2022-07-30T03:52:34.566Z,101004.06
2022-07-30T03:55:03.769Z,100995.97
2022-07-30T03:57:30.523Z,101000.84
2022-07-30T03:59:57.139Z,101002.44
2022-07-30T04:02:23.668Z,100995.97
2022-07-30T04:04:50.308Z,101000.41
2022-07-30T04:07:17.157Z,101002.03
2022-07-30T04:09:43.790Z,101006.47
2022-07-30T04:12:10.389Z,101008.50
2022-07-30T04:14:45.046Z,101017.81
2022-07-30T04:17:24.606Z,101019.81
2022-07-30T04:19:54.975Z,101025.88
2022-07-30T04:22:27.379Z,101026.28
2022-07-30T04:24:54.874Z,101026.69
2022-07-30T04:27:21.823Z,101029.13
2022-07-30T04:29:48.375Z,101030.34
2022-07-30T04:32:14.956Z,101032.31
2022-07-30T04:34:52.629Z,101043.66
2022-07-30T04:37:22.093Z,101033.53
2022-07-30T04:39:54.175Z,101043.63
2022-07-30T04:42:21.361Z,101046.47
2022-07-30T04:44:48.275Z,101050.13
2022-07-30T04:47:14.773Z,101052.13
2022-07-30T04:49:42.122Z,101056.59
2022-07-30T04:52:10.530Z,101057.78
2022-07-30T04:54:52.938Z,101065.47
2022-07-30T04:57:20.590Z,101058.59
2022-07-30T04:59:47.248Z,101059.81
2022-07-30T05:02:16.101Z,101062.63
2022-07-30T05:04:42.939Z,101065.47
2022-07-30T05:07:13.958Z,101070.72
2022-07-30T05:09:42.983Z,101073.94
2022-07-30T05:12:10.283Z,101073.94
2022-07-30T05:14:36.811Z,101080.41
2022-07-30T05:17:04.068Z,101077.19
2022-07-30T05:19:31.018Z,101081.63
2022-07-30T05:21:57.519Z,101087.28
2022-07-30T05:24:24.156Z,101090.94
2022-07-30T05:26:50.762Z,101095.38
2022-07-30T05:29:19.962Z,101100.63
2022-07-30T05:31:47.506Z,101104.66
2022-07-30T05:34:13.997Z,101103.03
2022-07-30T05:36:40.630Z,101098.19
2022-07-30T05:39:07.157Z,101105.06
2022-07-30T05:41:33.766Z,101106.66
2022-07-30T05:44:00.848Z,101100.59
2022-07-30T05:46:28.048Z,101101.41
2022-07-30T05:48:54.690Z,101101.81
2022-07-30T05:51:22.185Z,101104.22
2022-07-30T05:53:48.836Z,101099.38
2022-07-30T05:56:15.338Z,101103.00
2022-07-30T05:58:41.857Z,101102.19
2022-07-30T06:01:08.531Z,101103.38
2022-07-30T06:03:35.242Z,101096.13
2022-07-30T06:06:05.318Z,101093.28
2022-07-30T06:08:32.193Z,101097.72
2022-07-30T06:10:58.888Z,101092.47
2022-07-30T06:13:25.457Z,101098.53
2022-07-30T06:15:52.095Z,101100.94
2022-07-30T06:18:18.666Z,101100.16
2022-07-30T06:20:45.850Z,101103.00
2022-07-30T06:23:12.833Z,101112.28
2022-07-30T06:25:39.903Z,101096.06
2022-07-30T06:28:34.840Z,101097.25
2022-07-30T06:30:53.991Z,101108.56
2022-07-30T06:33:20.562Z,101105.69
2022-07-30T06:35:47.491Z,101113.75
2022-07-30T06:38:14.008Z,101109.28
2022-07-30T06:40:40.602Z,101110.44
2022-07-30T06:43:07.130Z,101107.19
2022-07-30T06:45:33.761Z,101107.53
2022-07-30T06:48:00.625Z,101110.31
2022-07-30T06:50:27.326Z,101110.28
2022-07-30T06:52:55.167Z,101108.63
2022-07-30T06:55:21.720Z,101111.41
2022-07-30T06:57:48.417Z,101112.59
2022-07-30T07:00:15.625Z,101119.00
2022-07-30T07:02:42.780Z,101119.75
2022-07-30T07:05:09.705Z,101116.47
2022-07-30T07:07:42.045Z,101122.53
2022-07-30T07:10:10.515Z,101125.72
2022-07-30T07:12:37.021Z,101125.63
2022-07-30T07:15:03.835Z,101127.22
2022-07-30T07:17:30.315Z,101132.03
2022-07-30T07:20:01.784Z,101122.63
2022-07-30T07:22:29.460Z,101134.69
2022-07-30T07:24:56.110Z,101124.44
2022-07-30T07:27:22.634Z,101123.59
2022-07-30T07:30:01.003Z,101124.72
2022-07-30T07:32:30.806Z,101123.84
2022-07-30T07:34:57.309Z,101128.91
2022-07-30T07:37:23.812Z,101134.72
2022-07-30T07:39:50.325Z,101136.72
2022-07-30T07:42:16.817Z,101129.63
2022-07-30T07:44:43.484Z,101139.09
2022-07-30T07:47:09.962Z,101137.53
2022-07-30T07:49:36.466Z,101134.59
2022-07-30T07:52:03.401Z,101129.28
2022-07-30T07:54:29.933Z,101139.53
2022-07-30T07:56:56.693Z,101136.69
2022-07-30T07:59:27.781Z,101141.47
2022-07-30T08:02:08.152Z,101144.72
2022-07-30T08:04:35.356Z,101141.50
2022-07-30T08:07:02.330Z,101138.00
2022-07-30T08:09:43.995Z,101145.09
2022-07-30T08:12:14.486Z,101155.97
2022-07-30T08:14:41.188Z,101147.75
2022-07-30T08:17:08.613Z,101148.13
2022-07-30T08:19:35.603Z,101152.25
2022-07-30T08:22:02.095Z,101158.56
2022-07-30T08:24:28.583Z,101155.97
2022-07-30T08:26:55.156Z,101162.25
2022-07-30T08:29:21.688Z,101162.09
2022-07-30T08:31:48.362Z,101149.66
2022-07-30T08:34:15.195Z,101148.41
2022-07-30T08:36:42.119Z,101154.47
2022-07-30T08:39:08.984Z,101157.22
2022-07-30T08:41:38.733Z,101162.47
2022-07-30T08:44:12.577Z,101159.13
2022-07-30T08:46:47.684Z,101160.75
2022-07-30T08:49:14.830Z,101162.22
2022-07-30T08:51:42.105Z,101162.22
2022-07-30T08:54:08.943Z,101163.13
2022-07-30T08:56:35.535Z,101165.81
2022-07-30T08:59:02.648Z,101160.84
2022-07-30T09:01:29.409Z,101173.06
2022-07-30T09:03:55.998Z,101165.66
2022-07-30T09:06:22.685Z,101165.72
2022-07-30T09:08:49.300Z,101167.53
2022-07-30T09:11:15.875Z,101165.34
2022-07-30T09:13:42.989Z,101171.31
2022-07-30T09:16:27.509Z,101175.44
2022-07-30T09:18:54.834Z,101164.91
2022-07-30T09:21:26.619Z,101172.81
2022-07-30T09:24:10.574Z,101173.88
2022-07-30T09:27:03.118Z,101169.50
2022-07-30T09:29:31.065Z,101167.47
2022-07-30T09:32:03.940Z,101178.06
2022-07-30T09:34:32.926Z,101169.69
2022-07-30T09:37:20.814Z,101178.47
2022-07-30T09:39:58.759Z,101174.81
2022-07-30T09:42:28.781Z,101176.41
2022-07-30T09:45:08.516Z,101174.81
2022-07-30T09:47:37.395Z,101176.78
2022-07-30T09:50:29.221Z,101167.41
2022-07-30T09:53:06.766Z,101173.78
2022-07-30T09:55:35.509Z,101172.09
2022-07-30T09:58:04.145Z,101172.44
2022-07-30T10:00:33.192Z,101174.84
2022-07-30T10:03:00.673Z,101164.78
2022-07-30T10:05:39.537Z,101170.13
2022-07-30T10:08:09.321Z,101165.66
2022-07-30T10:10:47.245Z,101172.19
2022-07-30T10:13:20.847Z,101175.97
2022-07-30T10:15:49.622Z,101167.50
2022-07-30T10:18:17.670Z,101172.75
2022-07-30T10:20:45.129Z,101169.44
2022-07-30T10:23:15.665Z,101164.53
2022-07-30T10:25:49.083Z,101164.06
2022-07-30T10:28:22.805Z,101165.91
2022-07-30T10:30:52.169Z,101171.06
2022-07-30T10:33:36.500Z,101165.56
2022-07-30T10:36:10.387Z,101169.53
2022-07-30T10:38:41.351Z,101161.72
2022-07-30T10:41:43.210Z,101176.03
2022-07-30T10:44:29.034Z,101171.44
2022-07-30T10:47:07.598Z,101176.38
2022-07-30T10:49:40.996Z,101171.91
2022-07-30T10:52:08.312Z,101162.28
2022-07-30T10:54:39.301Z,101159.63
2022-07-30T10:57:26.637Z,101168.75
2022-07-30T11:00:04.271Z,101161.41
2022-07-30T11:02:35.772Z,101156.56
2022-07-30T11:05:18.026Z,101160.94
2022-07-30T11:07:47.723Z,101154.72
2022-07-30T11:10:34.229Z,101155.66
2022-07-30T11:13:01.424Z,101155.41
2022-07-30T11:15:59.714Z,101154.00
2022-07-30T11:18:28.875Z,101145.34
2022-07-30T11:21:20.749Z,101153.78
2022-07-30T11:23:48.172Z,101149.41
2022-07-30T11:26:38.641Z,101151.63
2022-07-30T11:29:32.999Z,101156.94
2022-07-30T11:32:31.937Z,101149.19
2022-07-30T11:35:32.344Z,101148.38
2022-07-30T11:38:08.790Z,101142.66
2022-07-30T11:40:59.118Z,101139.81
2022-07-30T11:43:34.823Z,101138.69
2022-07-30T11:46:17.999Z,101133.97
2022-07-30T11:48:57.587Z,101135.03
2022-07-30T11:51:24.653Z,101131.16
2022-07-30T11:54:08.591Z,101123.38
2022-07-30T11:56:35.125Z,101124.75
2022-07-30T11:59:07.280Z,101128.41
2022-07-30T12:01:35.266Z,101124.59
2022-07-30T12:04:06.195Z,101126.66
2022-07-30T12:06:33.545Z,101132.75
2022-07-30T12:09:00.112Z,101128.63
2022-07-30T12:11:34.203Z,101129.09
2022-07-30T12:14:02.134Z,101130.91
2022-07-30T12:16:30.973Z,101132.41
2022-07-30T12:19:05.457Z,101124.13
2022-07-30T12:21:32.387Z,101128.38
2022-07-30T12:24:01.679Z,101132.38
2022-07-30T12:26:34.345Z,101140.41
2022-07-30T12:29:06.619Z,101131.25
2022-07-30T12:31:33.826Z,101133.97
2022-07-30T12:34:00.823Z,101125.25
2022-07-30T12:36:31.479Z,101131.66
2022-07-30T12:38:58.902Z,101125.34
2022-07-30T12:41:46.178Z,101125.22
2022-07-30T12:44:42.021Z,101137.69
2022-07-30T12:47:28.685Z,101127.38
2022-07-30T12:49:57.635Z,101125.16
2022-07-30T12:52:31.751Z,101128.97
2022-07-30T12:55:09.334Z,101130.69
2022-07-30T12:57:56.009Z,101129.22
2022-07-30T13:00:27.314Z,101124.75
2022-07-30T13:02:54.163Z,101116.16
2022-07-30T13:05:20.881Z,101125.22
2022-07-30T13:08:00.396Z,101117.34
2022-07-30T13:10:31.250Z,101121.78
2022-07-30T13:12:58.937Z,101128.81
2022-07-30T13:15:26.417Z,101105.53
2022-07-30T13:17:52.973Z,101116.53
2022-07-30T13:20:19.633Z,101116.53
2022-07-30T13:22:46.289Z,101116.06
2022-07-30T13:25:13.119Z,101107.81
2022-07-30T13:27:40.103Z,101106.44
2022-07-30T13:30:07.336Z,101118.22
2022-07-30T13:32:34.055Z,101113.28
2022-07-30T13:35:01.765Z,101116.94
2022-07-30T13:37:37.843Z,101118.22
2022-07-30T13:40:06.770Z,101110.91
2022-07-30T13:42:33.595Z,101119.81
2022-07-30T13:45:00.148Z,101124.28
2022-07-30T13:47:26.678Z,101120.03
2022-07-30T13:49:53.362Z,101109.72
2022-07-30T13:52:19.886Z,101123.56
2022-07-30T13:54:46.426Z,101103.84
2022-07-30T13:57:12.948Z,101115.16
2022-07-30T13:59:39.457Z,101113.78
2022-07-30T14:02:06.091Z,101103.47
2022-07-30T14:04:32.605Z,101102.50
2022-07-30T14:06:59.296Z,101108.91
2022-07-30T14:09:25.936Z,101110.91
2022-07-30T14:11:53.793Z,101111.69
2022-07-30T14:14:22.397Z,101117.75
2022-07-30T14:16:53.732Z,101114.09
2022-07-30T14:19:23.286Z,101111.22
2022-07-30T14:21:52.553Z,101112.00
2022-07-30T14:24:19.003Z,101113.16
2022-07-30T14:26:45.532Z,101115.44
2022-07-30T14:29:12.178Z,101102.84
2022-07-30T14:31:40.428Z,101102.00
2022-07-30T14:34:07.074Z,101095.47
2022-07-30T14:36:34.013Z,101096.28
2022-07-30T14:39:03.973Z,101094.22
2022-07-30T14:41:31.609Z,101093.75
2022-07-30T14:43:58.208Z,101097.75
2022-07-30T14:46:24.732Z,101098.09
2022-07-30T14:48:51.291Z,101086.63
2022-07-30T14:51:22.962Z,101087.06
2022-07-30T14:53:52.132Z,101092.81
2022-07-30T14:56:19.435Z,101087.06
2022-07-30T14:58:46.303Z,101092.00
2022-07-30T15:01:15.828Z,101097.75
2022-07-30T15:03:43.724Z,101099.00
2022-07-30T15:06:12.575Z,101102.84
2022-07-30T15:08:39.263Z,101096.44
2022-07-30T15:11:06.169Z,101105.94
2022-07-30T15:13:35.131Z,101100.78
2022-07-30T15:16:03.169Z,101102.19
2022-07-30T15:18:29.667Z,101101.06
2022-07-30T15:20:56.391Z,101097.84
2022-07-30T15:23:22.948Z,101089.72
2022-07-30T15:25:49.549Z,101088.44
2022-07-30T15:28:16.152Z,101090.03
2022-07-30T15:30:42.755Z,101091.19
2022-07-30T15:33:09.347Z,101093.09
2022-07-30T15:35:37.391Z,101086.78
2022-07-30T15:38:04.204Z,101091.63
2022-07-30T15:40:30.854Z,101082.88
2022-07-30T15:42:57.423Z,101086.88
2022-07-30T15:45:24.994Z,101073.69
2022-07-30T15:47:51.780Z,101081.00
2022-07-30T15:50:18.388Z,101090.41
2022-07-30T15:52:45.348Z,101096.16
2022-07-30T15:55:12.281Z,101091.69
2022-07-30T15:57:40.536Z,101085.47
2022-07-30T16:00:08.653Z,101089.47
2022-07-30T16:02:36.199Z,101082.00
2022-07-30T16:05:04.087Z,101088.09
2022-07-30T16:07:30.771Z,101072.47
2022-07-30T16:09:57.342Z,101087.13
2022-07-30T16:12:24.976Z,101091.63
2022-07-30T16:14:52.025Z,101088.28
2022-07-30T16:17:18.706Z,101082.53
2022-07-30T16:19:46.241Z,101083.47
2022-07-30T16:22:14.940Z,101096.34
2022-07-30T16:24:48.791Z,101086.25
2022-07-30T16:27:16.705Z,101086.44
2022-07-30T16:29:43.211Z,101082.53
2022-07-30T16:32:09.802Z,101079.34
2022-07-30T16:34:36.335Z,101083.91
2022-07-30T16:37:04.069Z,101081.50
2022-07-30T16:39:31.064Z,101081.50
2022-07-30T16:41:57.621Z,101089.31
2022-07-30T16:44:24.107Z,101082.00
2022-07-30T16:46:50.588Z,101087.72
2022-07-30T16:49:17.147Z,101087.38
2022-07-30T16:51:44.021Z,101083.38
2022-07-30T16:54:11.598Z,101095.44
2022-07-30T16:56:38.102Z,101098.91
2022-07-30T16:59:04.658Z,101095.84
2022-07-30T17:01:32.174Z,101088.28
2022-07-30T17:03:58.890Z,101084.41
2022-07-30T17:06:25.592Z,101083.41
2022-07-30T17:08:52.123Z,101082.75
2022-07-30T17:11:46.659Z,101082.06
2022-07-30T17:14:05.979Z,101086.63
2022-07-30T17:16:32.649Z,101089.63
2022-07-30T17:18:59.235Z,101082.41
2022-07-30T17:21:25.746Z,101088.25
2022-07-30T17:23:52.429Z,101091.59
2022-07-30T17:26:18.939Z,101087.47
2022-07-30T17:28:45.450Z,101083.78
2022-07-30T17:31:12.583Z,101092.28
2022-07-30T17:33:39.178Z,101082.75
2022-07-30T17:36:08.402Z,101087.91
2022-07-30T17:38:35.604Z,101087.31
2022-07-30T17:41:02.573Z,101090.06
2022-07-30T17:43:29.136Z,101091.22
2022-07-30T17:45:55.664Z,101092.34
2022-07-30T17:48:22.192Z,101093.13
2022-07-30T17:50:48.719Z,101093.94
2022-07-30T17:53:15.269Z,101093.94
2022-07-30T17:55:41.956Z,101089.84
2022-07-30T17:58:24.461Z,101097.97
2022-07-30T18:00:50.994Z,101092.69
2022-07-30T18:03:17.570Z,101096.00
2022-07-30T18:05:44.356Z,101103.81
2022-07-30T18:08:10.982Z,101101.84
2022-07-30T18:10:37.543Z,101106.47
2022-07-30T18:13:16.641Z,101108.19
2022-07-30T18:15:50.557Z,101105.00
2022-07-30T18:18:17.055Z,101110.84
2022-07-30T18:20:47.973Z,101111.75
2022-07-30T18:23:18.927Z,101113.13
2022-07-30T18:25:52.005Z,101107.50
2022-07-30T18:28:21.258Z,101121.94
2022-07-30T18:30:48.040Z,101116.34
2022-07-30T18:33:16.051Z,101115.53
2022-07-30T18:35:45.177Z,101111.66
2022-07-30T18:38:11.678Z,101117.06
2022-07-30T18:40:38.274Z,101113.03
2022-07-30T18:43:04.831Z,101122.22
2022-07-30T18:45:36.648Z,101115.78
2022-07-30T18:48:03.690Z,101123.69
2022-07-30T18:50:30.679Z,101127.94
2022-07-30T18:52:57.200Z,101125.63
2022-07-30T18:55:23.764Z,101122.91
2022-07-30T18:57:52.310Z,101132.03
2022-07-30T19:00:34.463Z,101129.28
2022-07-30T19:03:02.346Z,101131.00
2022-07-30T19:05:29.234Z,101136.38
2022-07-30T19:07:58.048Z,101135.69
2022-07-30T19:10:26.197Z,101130.88
2022-07-30T19:12:54.181Z,101137.97
2022-07-30T19:15:20.999Z,101136.03
2022-07-30T19:17:48.957Z,101135.31
2022-07-30T19:20:15.728Z,101141.94
2022-07-30T19:22:42.359Z,101147.81
2022-07-30T19:25:09.883Z,101147.91
2022-07-30T19:27:36.568Z,101149.59
2022-07-30T19:30:04.917Z,101163.22
2022-07-30T19:32:31.479Z,101156.34
2022-07-30T19:34:57.988Z,101150.72
2022-07-30T19:37:24.494Z,101157.38
2022-07-30T19:40:05.274Z,101154.56
2022-07-30T19:42:33.968Z,101156.72
2022-07-30T19:45:01.347Z,101160.47
2022-07-30T19:47:39.401Z,101154.09
2022-07-30T19:50:07.619Z,101160.69
2022-07-30T19:52:36.036Z,101166.50
2022-07-30T19:55:03.861Z,101164.56
2022-07-30T19:57:52.956Z,101174.03
2022-07-30T20:00:24.827Z,101167.59
2022-07-30T20:02:52.381Z,101164.03
2022-07-30T20:05:19.629Z,101175.94
2022-07-30T20:07:47.128Z,101174.41
2022-07-30T20:10:15.904Z,101184.69
2022-07-30T20:12:49.220Z,101184.81
2022-07-30T20:15:16.544Z,101182.81
2022-07-30T20:17:46.300Z,101184.53
2022-07-30T20:20:13.711Z,101192.75
2022-07-30T20:22:40.840Z,101188.75
2022-07-30T20:25:08.735Z,101187.19
2022-07-30T20:27:35.955Z,101186.41
2022-07-30T20:30:04.599Z,101195.06
2022-07-30T20:32:31.133Z,101192.63
2022-07-30T20:34:58.547Z,101187.03
2022-07-30T20:37:27.417Z,101191.56
2022-07-30T20:39:55.595Z,101190.41
2022-07-30T20:42:23.866Z,101189.25
2022-07-30T20:44:53.283Z,101190.97
2022-07-30T20:47:34.232Z,101196.28
2022-07-30T20:50:06.141Z,101195.16
2022-07-30T20:52:36.416Z,101196.03
2022-07-30T20:55:03.124Z,101202.19
2022-07-30T20:57:51.444Z,101204.69
2022-07-30T21:00:18.712Z,101202.72
2022-07-30T21:02:46.751Z,101205.22
2022-07-30T21:05:20.086Z,101206.13
2022-07-30T21:07:47.172Z,101218.41
2022-07-30T21:10:14.697Z,101213.59
2022-07-30T21:12:44.742Z,101223.06
2022-07-30T21:18:04.272Z,101221.94
2022-07-30T21:20:31.545Z,101221.56
2022-07-30T21:23:06.176Z,101223.34
2022-07-30T21:26:00.558Z,101214.78
2022-07-30T21:28:27.532Z,101220.56
2022-07-30T21:30:54.535Z,101212.88
2022-07-30T21:33:24.072Z,101211.72
2022-07-30T21:35:57.438Z,101209.34
2022-07-30T21:38:26.451Z,101206.91
2022-07-30T21:40:53.618Z,101202.44
2022-07-30T21:43:22.912Z,101204.16
2022-07-30T21:45:56.531Z,101204.94
2022-07-30T21:48:24.329Z,101206.16
2022-07-30T21:50:50.875Z,101202.16
2022-07-30T21:53:17.516Z,101198.94
2022-07-30T21:55:56.669Z,101194.13
2022-07-30T21:58:26.100Z,101187.25
2022-07-30T22:00:54.995Z,101190.53
2022-07-30T22:04:03.493Z,101197.13
2022-07-30T22:06:08.253Z,101190.53
2022-07-30T22:08:39.740Z,101190.25
2022-07-30T22:11:08.942Z,101192.84
2022-07-30T22:13:36.351Z,101196.56
2022-07-30T22:16:21.396Z,101194.56
2022-07-30T22:18:47.950Z,101199.56
2022-07-30T22:21:14.662Z,101197.59
2022-07-30T22:23:41.183Z,101193.97
2022-07-30T22:26:26.571Z,101189.59
2022-07-30T22:28:54.330Z,101183.94
2022-07-30T22:31:21.280Z,101183.59
2022-07-30T22:33:49.810Z,101182.84
2022-07-30T22:36:17.897Z,101186.16
2022-07-30T22:38:58.489Z,101198.81
2022-07-30T22:41:25.991Z,101191.91
2022-07-30T22:43:55.729Z,101194.41
2022-07-30T22:46:30.063Z,101187.53
2022-07-30T22:48:57.257Z,101185.94
2022-07-30T22:51:25.590Z,101191.63
2022-07-30T22:54:13.020Z,101188.78
2022-07-30T22:56:40.494Z,101181.09
2022-07-30T22:59:07.036Z,101181.19
2022-07-30T23:01:33.638Z,101189.78
2022-07-30T23:04:01.374Z,101184.97
2022-07-30T23:06:28.152Z,101181.75
2022-07-30T23:08:56.547Z,101180.94
2022-07-30T23:11:23.110Z,101171.94
2022-07-30T23:12:26.971Z,101219.03
2022-07-30T23:13:49.683Z,101177.72
2022-07-30T23:16:16.199Z,101173.31
2022-07-30T23:18:42.690Z,101178.28
2022-07-30T23:21:09.913Z,101168.56
2022-07-30T23:23:36.475Z,101172.28
2022-07-30T23:26:04.896Z,101160.53
2022-07-30T23:28:31.540Z,101158.94
2022-07-30T23:30:58.030Z,101159.31
2022-07-30T23:33:24.563Z,101157.72
2022-07-30T23:35:51.100Z,101153.69
2022-07-30T23:38:17.635Z,101153.31
2022-07-30T23:40:44.462Z,101151.34
2022-07-30T23:43:10.952Z,101153.38
2022-07-30T23:45:37.426Z,101152.22
2022-07-30T23:48:04.235Z,101155.91
2022-07-30T23:50:32.269Z,101160.47
2022-07-30T23:52:59.275Z,101151.97
2022-07-30T23:55:27.076Z,101160.16
2022-07-30T23:57:53.709Z,101154.06
